sensor_id;sensor_type;location;lat;lon;timestamp;P1;durP1;ratioP1;P2;durP2;ratioP2
33714;SDS011;20043;50.998;4.754;2023-09-19T00:00:19;18.98;;;3.13;;
33714;SDS011;20043;50.998;4.754;2023-09-19T00:02:51;17.65;;;3.58;;
33714;SDS011;20043;50.998;4.754;2023-09-19T00:05:17;20.58;;;3.28;;
33714;SDS011;20043;50.998;4.754;2023-09-19T00:07:44;16.42;;;3.25;;
33714;SDS011;20043;50.998;4.754;2023-09-19T00:10:10;15.15;;;3.45;;
33714;SDS011;20043;50.998;4.754;2023-09-19T00:12:35;21.15;;;3.45;;
33714;SDS011;20043;50.998;4.754;2023-09-19T00:15:01;14.35;;;3.40;;
33714;SDS011;20043;50.998;4.754;2023-09-19T00:17:30;24.05;;;3.80;;
33714;SDS011;20043;50.998;4.754;2023-09-19T00:19:57;11.80;;;3.03;;
33714;SDS011;20043;50.998;4.754;2023-09-19T00:22:23;18.05;;;3.30;;
33714;SDS011;20043;50.998;4.754;2023-09-19T00:24:50;13.50;;;2.97;;
33714;SDS011;20043;50.998;4.754;2023-09-19T00:27:16;17.88;;;3.15;;
33714;SDS011;20043;50.998;4.754;2023-09-19T00:29:43;20.23;;;3.28;;
33714;SDS011;20043;50.998;4.754;2023-09-19T00:32:09;20.00;;;3.90;;
33714;SDS011;20043;50.998;4.754;2023-09-19T00:34:34;17.08;;;3.58;;
33714;SDS011;20043;50.998;4.754;2023-09-19T00:37:00;12.90;;;2.90;;
33714;SDS011;20043;50.998;4.754;2023-09-19T00:39:26;16.17;;;3.20;;
33714;SDS011;20043;50.998;4.754;2023-09-19T00:41:52;13.55;;;3.33;;
33714;SDS011;20043;50.998;4.754;2023-09-19T00:44:19;22.83;;;3.47;;
33714;SDS011;20043;50.998;4.754;2023-09-19T00:46:48;15.40;;;2.97;;
33714;SDS011;20043;50.998;4.754;2023-09-19T00:49:15;15.98;;;2.97;;
33714;SDS011;20043;50.998;4.754;2023-09-19T00:51:41;18.73;;;3.75;;
33714;SDS011;20043;50.998;4.754;2023-09-19T00:54:07;26.60;;;3.45;;
33714;SDS011;20043;50.998;4.754;2023-09-19T00:56:33;17.25;;;3.15;;
33714;SDS011;20043;50.998;4.754;2023-09-19T00:58:59;14.30;;;3.60;;
33714;SDS011;20043;50.998;4.754;2023-09-19T01:01:25;19.48;;;3.13;;
33714;SDS011;20043;50.998;4.754;2023-09-19T01:03:50;20.20;;;3.90;;
33714;SDS011;20043;50.998;4.754;2023-09-19T01:06:16;15.38;;;3.60;;
33714;SDS011;20043;50.998;4.754;2023-09-19T01:08:42;17.10;;;3.33;;
33714;SDS011;20043;50.998;4.754;2023-09-19T01:13:56;16.40;;;3.25;;
33714;SDS011;20043;50.998;4.754;2023-09-19T01:19:14;17.63;;;3.33;;
33714;SDS011;20043;50.998;4.754;2023-09-19T01:21:54;14.90;;;3.35;;
33714;SDS011;20043;50.998;4.754;2023-09-19T01:24:34;17.38;;;3.00;;
33714;SDS011;20043;50.998;4.754;2023-09-19T01:29:48;16.20;;;3.47;;
33714;SDS011;20043;50.998;4.754;2023-09-19T01:32:18;17.92;;;3.58;;
33714;SDS011;20043;50.998;4.754;2023-09-19T01:37:24;16.85;;;3.17;;
33714;SDS011;20043;50.998;4.754;2023-09-19T01:39:57;19.33;;;3.60;;
33714;SDS011;20043;50.998;4.754;2023-09-19T01:45:24;18.15;;;3.40;;
33714;SDS011;20043;50.998;4.754;2023-09-19T01:51:01;20.63;;;3.72;;
33714;SDS011;20043;50.998;4.754;2023-09-19T01:53:35;15.40;;;3.95;;
33714;SDS011;20043;50.998;4.754;2023-09-19T01:56:08;13.38;;;3.45;;
33714;SDS011;20043;50.998;4.754;2023-09-19T01:58:39;16.73;;;3.42;;
33714;SDS011;20043;50.998;4.754;2023-09-19T02:01:10;13.38;;;2.97;;
33714;SDS011;20043;50.998;4.754;2023-09-19T02:03:40;16.42;;;3.40;;
33714;SDS011;20043;50.998;4.754;2023-09-19T02:06:06;19.58;;;3.42;;
33714;SDS011;20043;50.998;4.754;2023-09-19T02:08:36;15.60;;;3.25;;
33714;SDS011;20043;50.998;4.754;2023-09-19T02:11:02;13.73;;;2.70;;
33714;SDS011;20043;50.998;4.754;2023-09-19T02:13:28;16.60;;;3.22;;
33714;SDS011;20043;50.998;4.754;2023-09-19T02:15:56;12.27;;;3.00;;
33714;SDS011;20043;50.998;4.754;2023-09-19T02:18:22;16.90;;;3.03;;
33714;SDS011;20043;50.998;4.754;2023-09-19T02:20:48;21.38;;;3.55;;
33714;SDS011;20043;50.998;4.754;2023-09-19T02:23:16;19.42;;;3.60;;
33714;SDS011;20043;50.998;4.754;2023-09-19T02:25:42;14.15;;;3.38;;
33714;SDS011;20043;50.998;4.754;2023-09-19T02:28:08;20.83;;;3.85;;
33714;SDS011;20043;50.998;4.754;2023-09-19T02:30:34;14.38;;;3.28;;
33714;SDS011;20043;50.998;4.754;2023-09-19T02:33:01;18.67;;;3.10;;
33714;SDS011;20043;50.998;4.754;2023-09-19T02:35:27;20.70;;;4.03;;
33714;SDS011;20043;50.998;4.754;2023-09-19T02:37:53;23.55;;;3.38;;
33714;SDS011;20043;50.998;4.754;2023-09-19T02:40:19;17.48;;;2.97;;
33714;SDS011;20043;50.998;4.754;2023-09-19T02:42:45;22.30;;;3.78;;
33714;SDS011;20043;50.998;4.754;2023-09-19T02:45:18;22.00;;;3.90;;
33714;SDS011;20043;50.998;4.754;2023-09-19T02:47:44;18.88;;;3.58;;
33714;SDS011;20043;50.998;4.754;2023-09-19T02:50:13;23.40;;;3.75;;
33714;SDS011;20043;50.998;4.754;2023-09-19T02:52:44;17.77;;;3.70;;
33714;SDS011;20043;50.998;4.754;2023-09-19T02:55:13;25.85;;;3.90;;
33714;SDS011;20043;50.998;4.754;2023-09-19T02:57:45;16.30;;;3.75;;
33714;SDS011;20043;50.998;4.754;2023-09-19T03:00:15;20.55;;;4.05;;
33714;SDS011;20043;50.998;4.754;2023-09-19T03:02:45;25.13;;;4.15;;
33714;SDS011;20043;50.998;4.754;2023-09-19T03:05:12;18.70;;;3.40;;
33714;SDS011;20043;50.998;4.754;2023-09-19T03:07:37;21.15;;;4.15;;
33714;SDS011;20043;50.998;4.754;2023-09-19T03:10:03;19.73;;;3.83;;
33714;SDS011;20043;50.998;4.754;2023-09-19T03:12:32;18.02;;;3.67;;
33714;SDS011;20043;50.998;4.754;2023-09-19T03:14:59;19.15;;;3.80;;
33714;SDS011;20043;50.998;4.754;2023-09-19T03:17:25;18.00;;;3.58;;
33714;SDS011;20043;50.998;4.754;2023-09-19T03:19:50;15.35;;;3.15;;
33714;SDS011;20043;50.998;4.754;2023-09-19T03:22:16;21.20;;;3.55;;
33714;SDS011;20043;50.998;4.754;2023-09-19T03:24:43;21.23;;;3.85;;
33714;SDS011;20043;50.998;4.754;2023-09-19T03:27:11;19.23;;;3.83;;
33714;SDS011;20043;50.998;4.754;2023-09-19T03:29:41;20.13;;;3.97;;
33714;SDS011;20043;50.998;4.754;2023-09-19T03:32:09;19.65;;;3.10;;
33714;SDS011;20043;50.998;4.754;2023-09-19T03:34:36;17.52;;;3.47;;
33714;SDS011;20043;50.998;4.754;2023-09-19T03:37:05;20.48;;;4.10;;
33714;SDS011;20043;50.998;4.754;2023-09-19T03:39:31;14.07;;;3.55;;
33714;SDS011;20043;50.998;4.754;2023-09-19T03:41:57;17.30;;;3.42;;
33714;SDS011;20043;50.998;4.754;2023-09-19T03:44:23;15.80;;;4.10;;
33714;SDS011;20043;50.998;4.754;2023-09-19T03:46:48;18.65;;;3.55;;
33714;SDS011;20043;50.998;4.754;2023-09-19T03:49:14;27.45;;;4.25;;
33714;SDS011;20043;50.998;4.754;2023-09-19T03:51:40;18.83;;;3.15;;
33714;SDS011;20043;50.998;4.754;2023-09-19T03:54:06;18.30;;;3.50;;
33714;SDS011;20043;50.998;4.754;2023-09-19T03:56:32;20.65;;;3.83;;
33714;SDS011;20043;50.998;4.754;2023-09-19T03:58:58;15.63;;;3.58;;
33714;SDS011;20043;50.998;4.754;2023-09-19T04:01:24;22.85;;;3.50;;
33714;SDS011;20043;50.998;4.754;2023-09-19T04:03:49;16.60;;;3.30;;
33714;SDS011;20043;50.998;4.754;2023-09-19T04:06:17;19.92;;;3.28;;
33714;SDS011;20043;50.998;4.754;2023-09-19T04:08:43;15.82;;;3.70;;
33714;SDS011;20043;50.998;4.754;2023-09-19T04:11:09;23.38;;;4.32;;
33714;SDS011;20043;50.998;4.754;2023-09-19T04:13:35;16.50;;;3.00;;
33714;SDS011;20043;50.998;4.754;2023-09-19T04:16:01;18.05;;;3.50;;
33714;SDS011;20043;50.998;4.754;2023-09-19T04:18:31;14.40;;;3.33;;
33714;SDS011;20043;50.998;4.754;2023-09-19T04:20:58;16.90;;;3.72;;
33714;SDS011;20043;50.998;4.754;2023-09-19T04:23:27;15.15;;;3.67;;
33714;SDS011;20043;50.998;4.754;2023-09-19T04:25:53;19.52;;;3.10;;
33714;SDS011;20043;50.998;4.754;2023-09-19T04:28:19;20.35;;;3.60;;
33714;SDS011;20043;50.998;4.754;2023-09-19T04:30:44;16.27;;;3.35;;
33714;SDS011;20043;50.998;4.754;2023-09-19T04:33:10;16.95;;;3.47;;
33714;SDS011;20043;50.998;4.754;2023-09-19T04:35:39;20.88;;;3.50;;
33714;SDS011;20043;50.998;4.754;2023-09-19T04:38:07;16.00;;;3.45;;
33714;SDS011;20043;50.998;4.754;2023-09-19T04:40:33;12.57;;;3.20;;
33714;SDS011;20043;50.998;4.754;2023-09-19T04:42:59;19.48;;;3.42;;
33714;SDS011;20043;50.998;4.754;2023-09-19T04:45:25;18.88;;;3.83;;
33714;SDS011;20043;50.998;4.754;2023-09-19T04:47:52;25.17;;;3.88;;
33714;SDS011;20043;50.998;4.754;2023-09-19T04:50:18;17.02;;;3.33;;
33714;SDS011;20043;50.998;4.754;2023-09-19T04:52:49;20.00;;;3.72;;
33714;SDS011;20043;50.998;4.754;2023-09-19T04:55:16;15.82;;;3.38;;
33714;SDS011;20043;50.998;4.754;2023-09-19T04:57:46;20.40;;;3.63;;
33714;SDS011;20043;50.998;4.754;2023-09-19T05:00:16;18.38;;;4.03;;
33714;SDS011;20043;50.998;4.754;2023-09-19T05:02:43;24.73;;;4.00;;
33714;SDS011;20043;50.998;4.754;2023-09-19T05:05:09;23.60;;;3.95;;
33714;SDS011;20043;50.998;4.754;2023-09-19T05:07:40;19.70;;;3.53;;
33714;SDS011;20043;50.998;4.754;2023-09-19T05:10:07;17.95;;;3.65;;
33714;SDS011;20043;50.998;4.754;2023-09-19T05:12:34;17.30;;;3.15;;
33714;SDS011;20043;50.998;4.754;2023-09-19T05:15:03;22.83;;;3.28;;
33714;SDS011;20043;50.998;4.754;2023-09-19T05:17:29;21.90;;;3.88;;
33714;SDS011;20043;50.998;4.754;2023-09-19T05:19:56;17.20;;;3.58;;
33714;SDS011;20043;50.998;4.754;2023-09-19T05:22:23;20.92;;;3.92;;
33714;SDS011;20043;50.998;4.754;2023-09-19T05:24:49;18.10;;;3.72;;
33714;SDS011;20043;50.998;4.754;2023-09-19T05:27:16;20.27;;;3.85;;
33714;SDS011;20043;50.998;4.754;2023-09-19T05:29:44;16.08;;;4.05;;
33714;SDS011;20043;50.998;4.754;2023-09-19T05:32:10;23.02;;;4.07;;
33714;SDS011;20043;50.998;4.754;2023-09-19T05:34:37;18.23;;;3.50;;
33714;SDS011;20043;50.998;4.754;2023-09-19T05:37:03;18.98;;;3.50;;
33714;SDS011;20043;50.998;4.754;2023-09-19T05:39:32;23.15;;;4.07;;
33714;SDS011;20043;50.998;4.754;2023-09-19T05:41:58;27.33;;;4.47;;
33714;SDS011;20043;50.998;4.754;2023-09-19T05:44:25;20.27;;;3.50;;
33714;SDS011;20043;50.998;4.754;2023-09-19T05:46:51;19.95;;;4.13;;
33714;SDS011;20043;50.998;4.754;2023-09-19T05:49:17;20.52;;;4.10;;
33714;SDS011;20043;50.998;4.754;2023-09-19T05:51:42;25.70;;;3.88;;
33714;SDS011;20043;50.998;4.754;2023-09-19T05:54:08;21.08;;;3.10;;
33714;SDS011;20043;50.998;4.754;2023-09-19T05:56:36;14.75;;;3.47;;
33714;SDS011;20043;50.998;4.754;2023-09-19T05:59:01;20.35;;;3.67;;
33714;SDS011;20043;50.998;4.754;2023-09-19T06:01:28;14.07;;;3.05;;
33714;SDS011;20043;50.998;4.754;2023-09-19T06:03:56;20.10;;;3.55;;
33714;SDS011;20043;50.998;4.754;2023-09-19T06:06:21;21.05;;;4.00;;
33714;SDS011;20043;50.998;4.754;2023-09-19T06:08:49;14.40;;;3.22;;
33714;SDS011;20043;50.998;4.754;2023-09-19T06:11:15;22.23;;;4.03;;
33714;SDS011;20043;50.998;4.754;2023-09-19T06:13:41;16.48;;;3.83;;
33714;SDS011;20043;50.998;4.754;2023-09-19T06:16:07;16.55;;;3.50;;
33714;SDS011;20043;50.998;4.754;2023-09-19T06:18:34;21.95;;;3.85;;
33714;SDS011;20043;50.998;4.754;2023-09-19T06:21:00;23.33;;;4.07;;
33714;SDS011;20043;50.998;4.754;2023-09-19T06:23:30;15.93;;;3.22;;
33714;SDS011;20043;50.998;4.754;2023-09-19T06:25:55;23.08;;;4.25;;
33714;SDS011;20043;50.998;4.754;2023-09-19T06:28:22;16.00;;;3.33;;
33714;SDS011;20043;50.998;4.754;2023-09-19T06:30:50;19.23;;;4.07;;
33714;SDS011;20043;50.998;4.754;2023-09-19T06:33:16;21.25;;;3.28;;
33714;SDS011;20043;50.998;4.754;2023-09-19T06:35:43;19.45;;;3.55;;
33714;SDS011;20043;50.998;4.754;2023-09-19T06:38:09;20.23;;;4.32;;
33714;SDS011;20043;50.998;4.754;2023-09-19T06:40:38;14.15;;;3.05;;
33714;SDS011;20043;50.998;4.754;2023-09-19T06:43:04;24.15;;;4.07;;
33714;SDS011;20043;50.998;4.754;2023-09-19T06:45:30;18.08;;;3.75;;
33714;SDS011;20043;50.998;4.754;2023-09-19T06:47:57;22.48;;;3.65;;
33714;SDS011;20043;50.998;4.754;2023-09-19T06:50:31;26.23;;;4.03;;
33714;SDS011;20043;50.998;4.754;2023-09-19T06:52:58;18.05;;;3.80;;
33714;SDS011;20043;50.998;4.754;2023-09-19T06:55:25;15.40;;;3.42;;
33714;SDS011;20043;50.998;4.754;2023-09-19T06:57:56;21.08;;;3.45;;
33714;SDS011;20043;50.998;4.754;2023-09-19T07:00:22;18.95;;;3.67;;
33714;SDS011;20043;50.998;4.754;2023-09-19T07:02:58;19.85;;;3.40;;
33714;SDS011;20043;50.998;4.754;2023-09-19T07:05:28;16.55;;;3.13;;
33714;SDS011;20043;50.998;4.754;2023-09-19T07:07:59;17.75;;;3.50;;
33714;SDS011;20043;50.998;4.754;2023-09-19T07:10:25;19.08;;;2.90;;
33714;SDS011;20043;50.998;4.754;2023-09-19T07:12:59;19.08;;;3.47;;
33714;SDS011;20043;50.998;4.754;2023-09-19T07:15:26;30.45;;;4.28;;
33714;SDS011;20043;50.998;4.754;2023-09-19T07:17:53;20.70;;;3.38;;
33714;SDS011;20043;50.998;4.754;2023-09-19T07:20:26;22.17;;;3.20;;
33714;SDS011;20043;50.998;4.754;2023-09-19T07:22:53;15.15;;;3.70;;
33714;SDS011;20043;50.998;4.754;2023-09-19T07:25:20;23.88;;;3.60;;
33714;SDS011;20043;50.998;4.754;2023-09-19T07:27:46;17.30;;;3.38;;
33714;SDS011;20043;50.998;4.754;2023-09-19T07:30:12;13.68;;;2.92;;
33714;SDS011;20043;50.998;4.754;2023-09-19T07:32:38;21.08;;;3.80;;
33714;SDS011;20043;50.998;4.754;2023-09-19T07:35:04;19.45;;;3.42;;
33714;SDS011;20043;50.998;4.754;2023-09-19T07:37:31;19.50;;;4.00;;
33714;SDS011;20043;50.998;4.754;2023-09-19T07:40:01;14.38;;;3.60;;
33714;SDS011;20043;50.998;4.754;2023-09-19T07:42:32;21.73;;;3.35;;
33714;SDS011;20043;50.998;4.754;2023-09-19T07:45:00;15.38;;;3.35;;
33714;SDS011;20043;50.998;4.754;2023-09-19T07:47:26;16.50;;;3.00;;
33714;SDS011;20043;50.998;4.754;2023-09-19T07:49:52;16.85;;;3.10;;
33714;SDS011;20043;50.998;4.754;2023-09-19T07:52:18;17.20;;;3.53;;
33714;SDS011;20043;50.998;4.754;2023-09-19T07:54:44;17.05;;;3.63;;
33714;SDS011;20043;50.998;4.754;2023-09-19T07:57:10;17.95;;;3.25;;
33714;SDS011;20043;50.998;4.754;2023-09-19T07:59:36;15.88;;;3.58;;
33714;SDS011;20043;50.998;4.754;2023-09-19T08:02:03;13.30;;;3.95;;
33714;SDS011;20043;50.998;4.754;2023-09-19T08:04:29;12.98;;;2.95;;
33714;SDS011;20043;50.998;4.754;2023-09-19T08:06:58;12.00;;;3.05;;
33714;SDS011;20043;50.998;4.754;2023-09-19T08:09:24;17.58;;;3.40;;
33714;SDS011;20043;50.998;4.754;2023-09-19T08:11:51;15.52;;;3.25;;
33714;SDS011;20043;50.998;4.754;2023-09-19T08:14:16;16.67;;;3.70;;
33714;SDS011;20043;50.998;4.754;2023-09-19T08:16:42;19.10;;;3.70;;
33714;SDS011;20043;50.998;4.754;2023-09-19T08:19:09;13.98;;;3.22;;
33714;SDS011;20043;50.998;4.754;2023-09-19T08:21:35;17.42;;;3.15;;
33714;SDS011;20043;50.998;4.754;2023-09-19T08:24:01;16.70;;;3.30;;
33714;SDS011;20043;50.998;4.754;2023-09-19T08:26:30;16.23;;;3.28;;
33714;SDS011;20043;50.998;4.754;2023-09-19T08:28:56;16.42;;;3.28;;
33714;SDS011;20043;50.998;4.754;2023-09-19T08:31:22;18.23;;;3.38;;
33714;SDS011;20043;50.998;4.754;2023-09-19T08:33:49;31.42;;;3.78;;
33714;SDS011;20043;50.998;4.754;2023-09-19T08:36:16;18.38;;;3.67;;
33714;SDS011;20043;50.998;4.754;2023-09-19T08:38:42;14.43;;;3.42;;
33714;SDS011;20043;50.998;4.754;2023-09-19T08:41:07;15.48;;;2.88;;
33714;SDS011;20043;50.998;4.754;2023-09-19T08:43:33;15.50;;;3.92;;
33714;SDS011;20043;50.998;4.754;2023-09-19T08:46:21;22.83;;;3.97;;
33714;SDS011;20043;50.998;4.754;2023-09-19T08:49:01;16.05;;;3.30;;
33714;SDS011;20043;50.998;4.754;2023-09-19T08:51:41;22.55;;;4.20;;
33714;SDS011;20043;50.998;4.754;2023-09-19T08:54:44;13.93;;;3.20;;
33714;SDS011;20043;50.998;4.754;2023-09-19T08:57:06;19.15;;;3.72;;
33714;SDS011;20043;50.998;4.754;2023-09-19T08:59:37;19.92;;;3.47;;
33714;SDS011;20043;50.998;4.754;2023-09-19T09:02:11;15.65;;;3.20;;
33714;SDS011;20043;50.998;4.754;2023-09-19T09:04:39;15.15;;;3.75;;
33714;SDS011;20043;50.998;4.754;2023-09-19T09:07:10;18.55;;;3.13;;
33714;SDS011;20043;50.998;4.754;2023-09-19T09:09:37;14.57;;;4.05;;
33714;SDS011;20043;50.998;4.754;2023-09-19T09:12:07;15.52;;;3.70;;
33714;SDS011;20043;50.998;4.754;2023-09-19T09:14:45;11.05;;;3.15;;
33714;SDS011;20043;50.998;4.754;2023-09-19T09:17:13;23.83;;;3.58;;
33714;SDS011;20043;50.998;4.754;2023-09-19T09:19:40;15.90;;;3.42;;
33714;SDS011;20043;50.998;4.754;2023-09-19T09:22:09;10.52;;;2.88;;
33714;SDS011;20043;50.998;4.754;2023-09-19T09:24:36;19.13;;;3.25;;
33714;SDS011;20043;50.998;4.754;2023-09-19T09:27:04;14.30;;;3.00;;
33714;SDS011;20043;50.998;4.754;2023-09-19T09:29:40;18.25;;;3.60;;
33714;SDS011;20043;50.998;4.754;2023-09-19T09:32:18;13.93;;;3.08;;
33714;SDS011;20043;50.998;4.754;2023-09-19T09:37:21;15.18;;;3.05;;
33714;SDS011;20043;50.998;4.754;2023-09-19T09:42:31;17.55;;;3.10;;
33714;SDS011;20043;50.998;4.754;2023-09-19T09:45:13;15.93;;;2.95;;
33714;SDS011;20043;50.998;4.754;2023-09-19T09:47:43;19.45;;;3.03;;
33714;SDS011;20043;50.998;4.754;2023-09-19T09:50:31;13.70;;;3.10;;
33714;SDS011;20043;50.998;4.754;2023-09-19T09:53:22;15.35;;;2.67;;
33714;SDS011;20043;50.998;4.754;2023-09-19T09:56:07;13.43;;;3.15;;
33714;SDS011;20043;50.998;4.754;2023-09-19T09:58:52;15.55;;;3.42;;
33714;SDS011;20043;50.998;4.754;2023-09-19T10:01:20;15.45;;;3.22;;
33714;SDS011;20043;50.998;4.754;2023-09-19T10:03:51;15.50;;;2.78;;
33714;SDS011;20043;50.998;4.754;2023-09-19T10:06:23;12.48;;;3.10;;
33714;SDS011;20043;50.998;4.754;2023-09-19T10:09:02;13.35;;;3.25;;
33714;SDS011;20043;50.998;4.754;2023-09-19T10:11:35;11.88;;;2.83;;
33714;SDS011;20043;50.998;4.754;2023-09-19T10:14:04;14.18;;;2.60;;
33714;SDS011;20043;50.998;4.754;2023-09-19T10:16:33;11.90;;;2.45;;
33714;SDS011;20043;50.998;4.754;2023-09-19T10:19:01;9.18;;;2.35;;
33714;SDS011;20043;50.998;4.754;2023-09-19T10:21:29;9.27;;;2.40;;
33714;SDS011;20043;50.998;4.754;2023-09-19T10:23:57;13.05;;;2.70;;
33714;SDS011;20043;50.998;4.754;2023-09-19T10:26:25;11.98;;;2.30;;
33714;SDS011;20043;50.998;4.754;2023-09-19T10:28:56;16.50;;;3.10;;
33714;SDS011;20043;50.998;4.754;2023-09-19T10:31:26;11.55;;;2.53;;
33714;SDS011;20043;50.998;4.754;2023-09-19T10:33:53;11.10;;;2.35;;
33714;SDS011;20043;50.998;4.754;2023-09-19T10:36:35;10.85;;;2.13;;
33714;SDS011;20043;50.998;4.754;2023-09-19T10:39:09;8.27;;;2.25;;
33714;SDS011;20043;50.998;4.754;2023-09-19T10:41:38;11.13;;;2.45;;
33714;SDS011;20043;50.998;4.754;2023-09-19T10:44:05;8.40;;;2.50;;
33714;SDS011;20043;50.998;4.754;2023-09-19T10:46:34;11.32;;;2.00;;
33714;SDS011;20043;50.998;4.754;2023-09-19T10:49:00;8.68;;;2.05;;
33714;SDS011;20043;50.998;4.754;2023-09-19T10:51:29;13.05;;;2.58;;
33714;SDS011;20043;50.998;4.754;2023-09-19T10:54:06;9.95;;;2.53;;
33714;SDS011;20043;50.998;4.754;2023-09-19T10:56:38;9.98;;;2.22;;
33714;SDS011;20043;50.998;4.754;2023-09-19T10:59:15;9.57;;;1.80;;
33714;SDS011;20043;50.998;4.754;2023-09-19T11:01:48;6.82;;;2.10;;
33714;SDS011;20043;50.998;4.754;2023-09-19T11:04:34;14.02;;;2.45;;
33714;SDS011;20043;50.998;4.754;2023-09-19T11:15:06;9.93;;;2.00;;
33714;SDS011;20043;50.998;4.754;2023-09-19T11:17:39;9.48;;;1.77;;
33714;SDS011;20043;50.998;4.754;2023-09-19T11:30:52;6.43;;;1.60;;
33714;SDS011;20043;50.998;4.754;2023-09-19T11:33:22;6.47;;;1.50;;
33714;SDS011;20043;50.998;4.754;2023-09-19T11:38:56;12.05;;;2.13;;
33714;SDS011;20043;50.998;4.754;2023-09-19T11:46:35;9.07;;;2.00;;
33714;SDS011;20043;50.998;4.754;2023-09-19T11:49:23;6.35;;;1.75;;
33714;SDS011;20043;50.998;4.754;2023-09-19T11:51:55;6.90;;;1.40;;
33714;SDS011;20043;50.998;4.754;2023-09-19T11:54:21;9.02;;;1.60;;
33714;SDS011;20043;50.998;4.754;2023-09-19T11:56:50;7.63;;;1.85;;
33714;SDS011;20043;50.998;4.754;2023-09-19T12:01:51;6.97;;;1.33;;
33714;SDS011;20043;50.998;4.754;2023-09-19T12:06:58;16.07;;;2.03;;
33714;SDS011;20043;50.998;4.754;2023-09-19T12:09:24;8.35;;;1.20;;
33714;SDS011;20043;50.998;4.754;2023-09-19T12:11:50;6.80;;;1.60;;
33714;SDS011;20043;50.998;4.754;2023-09-19T12:14:26;6.57;;;1.50;;
33714;SDS011;20043;50.998;4.754;2023-09-19T12:16:55;8.93;;;1.95;;
33714;SDS011;20043;50.998;4.754;2023-09-19T12:19:22;5.35;;;1.63;;
33714;SDS011;20043;50.998;4.754;2023-09-19T12:21:58;8.07;;;1.55;;
33714;SDS011;20043;50.998;4.754;2023-09-19T12:24:29;8.55;;;1.50;;
33714;SDS011;20043;50.998;4.754;2023-09-19T12:26:59;6.13;;;1.67;;
33714;SDS011;20043;50.998;4.754;2023-09-19T12:29:26;8.77;;;1.75;;
33714;SDS011;20043;50.998;4.754;2023-09-19T12:31:53;5.97;;;1.60;;
33714;SDS011;20043;50.998;4.754;2023-09-19T12:34:26;6.25;;;1.40;;
33714;SDS011;20043;50.998;4.754;2023-09-19T12:39:47;7.65;;;1.75;;
33714;SDS011;20043;50.998;4.754;2023-09-19T12:42:16;9.15;;;1.73;;
33714;SDS011;20043;50.998;4.754;2023-09-19T12:44:50;11.60;;;1.70;;
33714;SDS011;20043;50.998;4.754;2023-09-19T12:47:25;10.10;;;1.63;;
33714;SDS011;20043;50.998;4.754;2023-09-19T12:50:08;5.65;;;1.30;;
33714;SDS011;20043;50.998;4.754;2023-09-19T12:52:39;9.23;;;1.67;;
33714;SDS011;20043;50.998;4.754;2023-09-19T12:55:05;9.65;;;2.25;;
33714;SDS011;20043;50.998;4.754;2023-09-19T12:57:36;4.68;;;1.35;;
33714;SDS011;20043;50.998;4.754;2023-09-19T13:00:05;4.43;;;1.35;;
33714;SDS011;20043;50.998;4.754;2023-09-19T13:02:32;8.30;;;1.60;;
33714;SDS011;20043;50.998;4.754;2023-09-19T13:04:58;6.68;;;1.70;;
33714;SDS011;20043;50.998;4.754;2023-09-19T13:10:08;5.07;;;1.27;;
33714;SDS011;20043;50.998;4.754;2023-09-19T13:12:35;6.13;;;1.30;;
33714;SDS011;20043;50.998;4.754;2023-09-19T13:15:13;4.57;;;1.30;;
33714;SDS011;20043;50.998;4.754;2023-09-19T13:17:49;5.72;;;1.27;;
33714;SDS011;20043;50.998;4.754;2023-09-19T13:20:24;16.30;;;2.00;;
33714;SDS011;20043;50.998;4.754;2023-09-19T13:22:57;5.78;;;1.40;;
33714;SDS011;20043;50.998;4.754;2023-09-19T13:25:31;8.18;;;1.42;;
33714;SDS011;20043;50.998;4.754;2023-09-19T13:27:58;8.63;;;1.58;;
33714;SDS011;20043;50.998;4.754;2023-09-19T13:30:27;8.40;;;1.52;;
33714;SDS011;20043;50.998;4.754;2023-09-19T13:33:08;9.18;;;1.45;;
33714;SDS011;20043;50.998;4.754;2023-09-19T13:35:35;4.50;;;1.42;;
33714;SDS011;20043;50.998;4.754;2023-09-19T13:38:03;57.17;;;6.20;;
33714;SDS011;20043;50.998;4.754;2023-09-19T13:40:29;4.13;;;1.58;;
33714;SDS011;20043;50.998;4.754;2023-09-19T13:42:55;8.75;;;1.45;;
33714;SDS011;20043;50.998;4.754;2023-09-19T13:45:21;6.78;;;1.83;;
33714;SDS011;20043;50.998;4.754;2023-09-19T13:47:49;51.75;;;5.75;;
33714;SDS011;20043;50.998;4.754;2023-09-19T13:50:15;4.07;;;1.15;;
33714;SDS011;20043;50.998;4.754;2023-09-19T13:52:42;9.65;;;1.77;;
33714;SDS011;20043;50.998;4.754;2023-09-19T13:55:07;7.82;;;1.80;;
33714;SDS011;20043;50.998;4.754;2023-09-19T13:57:33;5.75;;;1.27;;
33714;SDS011;20043;50.998;4.754;2023-09-19T13:59:59;8.80;;;1.80;;
33714;SDS011;20043;50.998;4.754;2023-09-19T14:02:24;5.75;;;1.45;;
33714;SDS011;20043;50.998;4.754;2023-09-19T14:04:53;8.40;;;2.08;;
33714;SDS011;20043;50.998;4.754;2023-09-19T14:07:19;7.45;;;1.60;;
33714;SDS011;20043;50.998;4.754;2023-09-19T14:09:45;3.83;;;1.38;;
33714;SDS011;20043;50.998;4.754;2023-09-19T14:12:11;6.63;;;1.58;;
33714;SDS011;20043;50.998;4.754;2023-09-19T14:14:37;4.53;;;1.40;;
33714;SDS011;20043;50.998;4.754;2023-09-19T14:17:03;8.10;;;1.33;;
33714;SDS011;20043;50.998;4.754;2023-09-19T14:19:29;5.00;;;1.20;;
33714;SDS011;20043;50.998;4.754;2023-09-19T14:21:55;4.28;;;1.60;;
33714;SDS011;20043;50.998;4.754;2023-09-19T14:24:22;6.63;;;1.45;;
33714;SDS011;20043;50.998;4.754;2023-09-19T14:26:49;4.88;;;1.50;;
33714;SDS011;20043;50.998;4.754;2023-09-19T14:29:15;7.30;;;1.90;;
33714;SDS011;20043;50.998;4.754;2023-09-19T14:31:41;7.53;;;1.83;;
33714;SDS011;20043;50.998;4.754;2023-09-19T14:34:07;8.57;;;1.77;;
33714;SDS011;20043;50.998;4.754;2023-09-19T14:36:37;5.57;;;1.42;;
33714;SDS011;20043;50.998;4.754;2023-09-19T14:39:04;5.72;;;1.70;;
33714;SDS011;20043;50.998;4.754;2023-09-19T14:41:30;6.60;;;1.40;;
33714;SDS011;20043;50.998;4.754;2023-09-19T14:43:56;6.32;;;1.50;;
33714;SDS011;20043;50.998;4.754;2023-09-19T14:46:21;4.90;;;1.58;;
33714;SDS011;20043;50.998;4.754;2023-09-19T14:48:50;7.90;;;1.90;;
33714;SDS011;20043;50.998;4.754;2023-09-19T14:51:16;6.30;;;1.98;;
33714;SDS011;20043;50.998;4.754;2023-09-19T14:53:44;7.57;;;1.75;;
33714;SDS011;20043;50.998;4.754;2023-09-19T14:56:11;8.52;;;1.85;;
33714;SDS011;20043;50.998;4.754;2023-09-19T14:58:38;7.18;;;1.30;;
33714;SDS011;20043;50.998;4.754;2023-09-19T15:01:13;9.20;;;2.08;;
33714;SDS011;20043;50.998;4.754;2023-09-19T15:03:42;8.23;;;2.15;;
33714;SDS011;20043;50.998;4.754;2023-09-19T15:06:08;10.93;;;2.20;;
33714;SDS011;20043;50.998;4.754;2023-09-19T15:08:39;6.93;;;1.90;;
33714;SDS011;20043;50.998;4.754;2023-09-19T15:11:05;7.72;;;2.08;;
33714;SDS011;20043;50.998;4.754;2023-09-19T15:13:35;10.10;;;1.83;;
33714;SDS011;20043;50.998;4.754;2023-09-19T15:16:02;8.93;;;1.90;;
33714;SDS011;20043;50.998;4.754;2023-09-19T15:18:29;5.85;;;1.90;;
33714;SDS011;20043;50.998;4.754;2023-09-19T15:20:55;6.93;;;1.60;;
33714;SDS011;20043;50.998;4.754;2023-09-19T15:23:31;8.18;;;2.05;;
33714;SDS011;20043;50.998;4.754;2023-09-19T15:26:01;6.03;;;1.63;;
33714;SDS011;20043;50.998;4.754;2023-09-19T15:28:31;6.13;;;1.80;;
33714;SDS011;20043;50.998;4.754;2023-09-19T15:33:35;6.82;;;1.90;;
33714;SDS011;20043;50.998;4.754;2023-09-19T15:36:01;9.38;;;1.83;;
33714;SDS011;20043;50.998;4.754;2023-09-19T15:38:30;5.63;;;1.85;;
33714;SDS011;20043;50.998;4.754;2023-09-19T15:40:57;7.18;;;2.00;;
33714;SDS011;20043;50.998;4.754;2023-09-19T15:43:24;6.93;;;1.73;;
33714;SDS011;20043;50.998;4.754;2023-09-19T15:45:49;7.30;;;2.10;;
33714;SDS011;20043;50.998;4.754;2023-09-19T15:48:15;10.55;;;2.30;;